Terminal Aerodrome Forecast
Issued by NWS Sioux Falls, SD

Home | Current Version | Previous Version | Text Only | Print | Product List | Glossary Off
Versions: 1 2 3 4 5 6 7 8 9 10 11 12 13 14 15 16 17 18 19 20 21 22 23 24 25 26 27 28 29 30

000
FTUS43 KFSD 011724
TAFSUX
TAF
KSUX 011724Z 0118/0218 18010KT P6SM VCSH SCT060 BKN090
     FM011900 22007KT P6SM SCT060 BKN090
     FM020100 VRB03KT P6SM FEW060
     FM020900 13004KT 6SM BR FEW250
     FM021230 16006KT P6SM SCT060
     FM021500 18011KT P6SM SCT080=

USA.gov is the U.S. government's official web portal to all federal, state and local government web resources and services.